GW0415 Weather Reports


Display with metric or nautical units.
time (UTC)temp
F
wind
direction
speed
MPH
gust
MPH
rain 1hr
in
rain 24hr
in
rain mn
in
humidity
%
barometer
mb
20240529140227 67 180 0.0 4.0 0.00 0.00 0.00 59 1025.3
20240529135727 67 180 0.0 4.0 0.00 0.00 0.00 59 1025.3
20240529135225 67 0 3.0 3.0 0.00 0.00 0.00 60 1025.6
20240529134724 67 0 3.0 3.0 0.00 0.00 0.00 60 1025.6
20240529134223 67 0 3.0 3.0 0.00 0.00 0.00 60 1025.6
20240529133722 66 23 2.0 2.0 0.00 0.00 0.00 60 1025.3
20240529133221 66 23 2.0 2.0 0.00 0.00 0.00 60 1025.3
20240529132720 66 23 2.0 2.0 0.00 0.00 0.00 60 1025.3
20240529122509 52 114 0.0 1.0 0.00 0.00 0.00 93 1024.7
20240529122009 52 114 0.0 1.0 0.00 0.00 0.00 93 1024.7
20240529121508 52 114 0.0 1.0 0.00 0.00 0.00 93 1024.7
20240529105847 46 6 0.0 0.0 0.00 0.00 0.00 96 1023.4
20240529105348 46 6 0.0 0.0 0.00 0.00 0.00 96 1023.4
20240529104847 46 6 0.0 0.0 0.00 0.00 0.00 96 1023.5
20240529101351 47 6 0.0 0.0 0.00 0.00 0.00 96 1023.2
20240529100850 47 6 0.0 0.0 0.00 0.00 0.00 96 1023.2
20240529100349 47 6 0.0 0.0 0.00 0.00 0.00 96 1023.2
20240529094155 48 6 0.0 0.0 0.00 0.00 0.00 95 1023.0
20240529093653 48 6 0.0 0.0 0.00 0.00 0.00 95 1023.0
20240529093152 48 6 0.0 0.0 0.00 0.00 0.00 95 1023.0
20240529090411 48 90 0.0 0.0 0.00 0.00 0.00 95 1022.9
20240529085910 48 90 0.0 0.0 0.00 0.00 0.00 95 1022.9
20240529085407 48 90 0.0 0.0 0.00 0.00 0.00 94 1022.6
20240529084907 48 90 0.0 0.0 0.00 0.00 0.00 94 1022.6
20240529084404 49 90 0.0 0.0 0.00 0.00 0.00 94 1022.5
20240529082345 49 114 0.0 0.0 0.00 0.00 0.00 94 1022.4
20240529081844 49 114 0.0 0.0 0.00 0.00 0.00 94 1022.4
20240529081344 49 114 0.0 0.0 0.00 0.00 0.00 94 1022.4
20240529074746 49 114 0.0 0.0 0.00 0.00 0.00 93 1022.0
20240529074244 49 114 0.0 0.0 0.00 0.00 0.00 93 1022.0
20240529073744 49 114 0.0 0.0 0.00 0.00 0.00 93 1022.0
20240529071902 50 114 0.0 0.0 0.00 0.00 0.00 91 1022.0
20240529071402 50 114 0.0 0.0 0.00 0.00 0.00 91 1022.0
20240529070900 50 114 0.0 0.0 0.00 0.00 0.00 91 1022.0
20240529065738 51 114 0.0 1.0 0.00 0.00 0.00 90 1021.9
20240529065237 51 114 0.0 1.0 0.00 0.00 0.00 90 1021.9
20240529064736 51 114 0.0 1.0 0.00 0.00 0.00 90 1021.9
20240529062017 51 126 0.0 0.0 0.00 0.00 0.00 90 1021.8
20240529061516 51 126 0.0 0.0 0.00 0.00 0.00 90 1021.8
20240529061015 51 126 0.0 0.0 0.00 0.00 0.00 90 1021.8
20240529050121 51 103 0.0 0.0 0.00 0.24 0.24 94 1021.7
20240529045619 51 103 0.0 0.0 0.00 0.24 0.24 94 1021.7
20240529045117 51 103 0.0 0.0 0.00 0.24 0.24 94 1021.7
20240529034117 53 103 0.0 0.0 0.00 0.24 0.24 90 1021.5
20240529032754 53 103 0.0 0.0 0.00 0.24 0.24 90 1021.5
20240529031343 54 103 0.0 0.0 0.00 0.24 0.24 88 1021.1
20240529025749 54 103 0.0 0.0 0.00 0.24 0.24 88 1021.1
20240529024327 54 103 0.0 0.0 0.00 0.24 0.24 86 1021.0
20240529020016 58 103 0.0 0.0 0.00 0.24 0.24 79 1020.7
20240529014328 58 103 0.0 0.0 0.00 0.24 0.24 79 1020.7
20240529005046 62 172 0.0 0.0 0.00 0.24 0.24 71 1020.0
20240529003826 62 172 0.0 0.0 0.00 0.24 0.24 71 1020.0
20240529001749 63 0 0.0 2.0 0.00 0.24 0.24 65 1019.9
20240528231306 60 126 0.0 1.0 0.00 0.24 0.24 79 1019.8
20240528224105 57 180 0.0 0.0 0.11 0.24 0.24 88 1020.0
20240528223457 57 180 0.0 0.0 0.11 0.24 0.24 88 1020.0
20240528222956 57 180 0.0 0.0 0.11 0.24 0.24 88 1020.0
20240528213646 67 162 0.0 4.0 0.00 0.13 0.13 50 1018.9
20240528213144 67 162 0.0 4.0 0.00 0.13 0.13 50 1018.9
20240528212644 67 162 0.0 4.0 0.00 0.13 0.13 50 1018.9
20240528212142 68 160 1.0 2.0 0.00 0.13 0.13 54 1019.0
20240528211640 68 160 1.0 2.0 0.00 0.13 0.13 54 1019.0
20240528210745 67 98 0.0 2.0 0.00 0.13 0.13 64 1019.1
20240528210243 67 98 0.0 2.0 0.00 0.13 0.13 64 1019.1
20240528205743 67 98 0.0 2.0 0.00 0.13 0.13 64 1019.1
20240528202658 62 0 1.0 2.0 0.00 0.13 0.13 83 1019.4
20240528202157 62 0 1.0 2.0 0.00 0.13 0.13 83 1019.4
20240528201656 62 0 1.0 2.0 0.00 0.13 0.13 83 1019.4
20240528190508 67 25 4.0 5.0 0.00 0.07 0.07 59 1018.9
20240528190007 67 25 4.0 5.0 0.00 0.07 0.07 59 1018.9
20240528185505 67 25 4.0 5.0 0.00 0.07 0.07 59 1018.9
20240528172635 65 106 0.0 4.0 0.00 0.07 0.07 62 1018.9
20240528172135 65 106 0.0 4.0 0.00 0.07 0.07 62 1018.9
20240528171634 65 106 0.0 4.0 0.00 0.07 0.07 62 1018.9
20240528170210 63 95 2.0 4.0 0.00 0.07 0.07 69 1018.9
20240528165708 63 95 2.0 4.0 0.00 0.07 0.07 69 1018.9
20240528165207 63 95 2.0 4.0 0.00 0.07 0.07 69 1018.9
20240528155811 61 148 0.0 2.0 0.00 0.07 0.07 80 1018.5
20240528155311 61 148 0.0 2.0 0.00 0.07 0.07 80 1018.5
20240528154809 61 148 0.0 2.0 0.00 0.07 0.07 80 1018.5
20240528152739 58 99 0.0 0.0 0.00 0.07 0.07 89 1018.5
20240528152238 58 99 0.0 0.0 0.00 0.07 0.07 89 1018.5
20240528151738 57 7 0.0 1.0 0.00 0.07 0.07 89 1018.3
20240528151236 57 7 0.0 1.0 0.00 0.07 0.07 89 1018.3